Pojoaque, New Mexico
Current Conditions -  °F | °C
As of 5:53 AM on Sunday 23 Nov 2014 (Local Time) from KSAF Reporting Station
Scattered Clouds Scattered Clouds  
Wind Chill: -1°   Ceiling: Unl
Heat Index:   Visibility: 10mi
Dew Point: -9°   Wind: 5mph
Humidity: 46%   Direction: NA
Pressure: 29.77"   Gusts: NA
Location:  35.7017°N, 105.921°W
Report Text: KSAF 231253Z AUTO VRB04KT 10SM FEW060 SCT095 02/M09 A2977 RMK AO2 SLP057 T00171089
Loading
Personal Weather Stations






























Interactive Weather Map New forecast layout! Learn more

10-Day Weather Forecast

Advertisements
Track Severe Weather on mobile